This is the latest recevied weather packets stored in our database for station/object N3WMC. If no packets are shown the sender has not sent any weather packets the latest 10 day(s).
| Time | Temp. | Humidity | Pressure | Rain* | Wind** | Luminosity | Snow |
|---|---|---|---|---|---|---|---|
| 1777576893 | 9.44° C | 69% | 1014.3 hPa | 0 mm | - | 128 W/m² | - |
| 1777576592 | 10° C | 70% | 1014.2 hPa | 0 mm | - | 198 W/m² | - |
| 1777576288 | 9.44° C | 72% | 1014.3 hPa | 0 mm | - | 279 W/m² | - |
| 1777575985 | 8.89° C | 73% | 1014.5 hPa | 0 mm | - | 188 W/m² | - |
| 1777575681 | 8.89° C | 74% | 1014.3 hPa | 0 mm | - | 76 W/m² | - |
| 1777575376 | 9.44° C | 73% | 1014.1 hPa | 0 mm | - | 65 W/m² | - |
| 1777575073 | 9.44° C | 72% | 1014.2 hPa | 0 mm | - | 95 W/m² | - |
| 1777574769 | 9.44° C | 73% | 1014.3 hPa | 0 mm | - | 244 W/m² | - |
| 1777574467 | 8.89° C | 74% | 1014.2 hPa | 0 mm | - | 262 W/m² | - |
| 1777574163 | 8.33° C | 75% | 1014.2 hPa | 0 mm | - | 157 W/m² | - |
| 1777573858 | 8.33° C | 75% | 1014.3 hPa | 0 mm | - | 105 W/m² | - |
| 1777573553 | 8.33° C | 74% | 1014.3 hPa | 0 mm | - | 76 W/m² | - |
| 1777573250 | 8.89° C | 73% | 1014.1 hPa | 0 mm | - | 78 W/m² | - |
| 1777572946 | 8.89° C | 74% | 1014.1 hPa | 0 mm | - | 98 W/m² | - |
| 1777572642 | 9.44° C | 73% | 1013.8 hPa | 0 mm | - | 217 W/m² | - |
| 1777572341 | 8.89° C | 74% | 1014 hPa | 0 mm | - | 259 W/m² | - |
| 1777572038 | 8.33° C | 75% | 1014 hPa | 0 mm | - | 172 W/m² | - |
| 1777571738 | 8.33° C | 78% | 1014.1 hPa | 0 mm | - | 175 W/m² | - |
| 1777571436 | 8.33° C | 79% | 1014.1 hPa | 0 mm | - | 169 W/m² | - |
| 1777571132 | 7.78° C | 79% | 1014 hPa | 0 mm | - | 101 W/m² | - |
| 1777570828 | 7.78° C | 79% | 1013.9 hPa | 0 mm | - | 100 W/m² | - |
| 1777570524 | 7.78° C | 78% | 1014.1 hPa | 0 mm | - | 90 W/m² | - |
| 1777570221 | 7.78° C | 79% | 1014.1 hPa | 0 mm | - | 67 W/m² | - |
| 1777569915 | 8.33° C | 80% | 1014 hPa | 0 mm | - | 91 W/m² | - |
| 1777569612 | 8.33° C | 78% | 1014.2 hPa | 0 mm | - | 132 W/m² | - |
* Rain latest hour (hover to see other rain measurements)
** Current wind speed in m/s (hover to see current wind gust speed)